Time;durP1;ratioP1;P1;durP2;ratioP2;P2;SDS_P1;SDS_P2;PMS_P1;PMS_P2;Temp;Humidity;BMP_temperature;BMP_pressure;BME280_temperature;BME280_humidity;BME280_pressure;Samples;Min_cycle;Max_cycle;Signal;HPM_P1;HPM_P2
2021/05/23 00:02:11;;;;;;;;;;;;;;;8.93;79.24;100632.53;5011985;28;19925;-76
2021/05/23 00:04:37;;;;;;;;;;;;;;;8.93;81.09;100636.94;5015231;28;19944;-76
2021/05/23 00:07:02;;;;;;;;;;;;;;;8.89;80.67;100638.16;4990829;28;19971;-78
2021/05/23 00:09:28;;;;;;;;;;;;;;;8.88;80.64;100639.94;5016558;28;19932;-76
2021/05/23 00:11:53;;;;;;;;;;;;;;;8.88;80.66;100637.34;5027434;28;20303;-76
2021/05/23 00:14:19;;;;;;;;;;;;;;;8.89;79.83;100646.00;5024659;28;20051;-76
2021/05/23 00:16:45;;;;;;;;;;;;;;;8.86;80.85;100648.91;5013251;28;19922;-76
2021/05/23 00:19:11;;;;;;;;;;;;;;;8.88;80.79;100641.75;5005524;28;19932;-76
2021/05/23 00:21:36;;;;;;;;;;;;;;;8.87;79.47;100643.53;5006903;28;19953;-76
2021/05/23 00:24:02;;;;;;;;;;;;;;;8.87;80.13;100638.31;5001737;28;19933;-74
2021/05/23 00:26:27;;;;;;;;;;;;;;;8.83;80.88;100642.16;4999890;28;19949;-76
2021/05/23 00:28:59;;;;;;;;;;;;;;;8.82;81.43;100645.75;5002774;28;19930;-76
2021/05/23 00:31:24;;;;;;;;;;;;;;;8.83;81.82;100647.38;5007779;28;20339;-76
2021/05/23 00:33:50;;;;;;;;;;;;;;;8.79;80.89;100642.56;5005777;28;20513;-76
2021/05/23 00:36:15;;;;;;;;;;;;;;;8.83;80.23;100644.75;5005308;28;20278;-76
2021/05/23 00:38:41;;;;;;;;;;;;;;;8.82;81.11;100640.50;5009454;28;20296;-75
2021/05/23 00:41:06;;;;;;;;;;;;;;;8.76;81.91;100643.69;5015449;28;20200;-75
2021/05/23 00:43:32;;;;;;;;;;;;;;;8.78;82.86;100657.44;5018877;28;19925;-77
2021/05/23 00:45:57;;;;;;;;;;;;;;;8.73;82.64;100657.84;5024248;28;19965;-77
2021/05/23 00:48:23;;;;;;;;;;;;;;;8.72;82.37;100655.34;5024905;28;19929;-77
2021/05/23 00:50:49;;;;;;;;;;;;;;;8.67;82.37;100655.78;5022056;28;20461;-74
2021/05/23 00:53:15;;;;;;;;;;;;;;;8.68;82.59;100656.59;5019331;28;19933;-76
2021/05/23 00:55:40;;;;;;;;;;;;;;;8.71;84.02;100661.56;5031189;28;20399;-75
2021/05/23 00:58:07;;;;;;;;;;;;;;;8.72;82.80;100655.34;5001249;28;20020;-75
2021/05/23 01:00:52;;;;;;;;;;;;;;;8.70;82.74;100665.97;5008024;28;19925;-76
2021/05/23 01:03:27;;;;;;;;;;;;;;;8.77;82.43;100667.06;4995565;28;19926;-76
2021/05/23 01:05:53;;;;;;;;;;;;;;;8.70;83.36;100660.75;5003501;28;19931;-75
2021/05/23 01:08:20;;;;;;;;;;;;;;;8.68;84.52;100667.06;5006866;28;20430;-76
2021/05/23 01:10:52;;;;;;;;;;;;;;;8.71;81.99;100667.59;5009868;28;19929;-77
2021/05/23 01:13:37;;;;;;;;;;;;;;;8.70;82.35;100673.81;5006094;28;19971;-76
2021/05/23 01:16:02;;;;;;;;;;;;;;;8.74;83.02;100677.00;5005923;28;19925;-76
2021/05/23 01:18:36;;;;;;;;;;;;;;;8.72;82.01;100674.50;5003510;28;19968;-76
2021/05/23 01:21:01;;;;;;;;;;;;;;;8.71;82.59;100677.25;5005844;28;19925;-76
2021/05/23 01:23:29;;;;;;;;;;;;;;;8.67;81.70;100683.72;5009030;28;19922;-76
2021/05/23 01:26:09;;;;;;;;;;;;;;;8.67;82.34;100679.31;5021697;28;20369;-76
2021/05/23 01:28:41;;;;;;;;;;;;;;;8.70;81.63;100675.59;5020657;28;20004;-76
2021/05/23 01:31:07;;;;;;;;;;;;;;;8.67;80.76;100675.88;5022484;28;19957;-76
2021/05/23 01:33:33;;;;;;;;;;;;;;;8.69;82.01;100681.78;5028208;28;19929;-76
2021/05/23 01:35:59;;;;;;;;;;;;;;;8.66;81.41;100682.06;5026990;28;19973;-76
2021/05/23 01:38:26;;;;;;;;;;;;;;;8.69;80.76;100682.63;5025775;28;20637;-77
2021/05/23 01:40:56;;;;;;;;;;;;;;;8.63;81.90;100677.94;5030709;28;20403;-75
2021/05/23 01:43:21;;;;;;;;;;;;;;;8.57;83.00;100686.31;5038742;28;19956;-76
2021/05/23 01:45:47;;;;;;;;;;;;;;;8.52;81.84;100686.72;5023584;28;19960;-76
2021/05/23 01:48:12;;;;;;;;;;;;;;;8.47;84.53;100685.47;5008668;28;20098;-75
2021/05/23 01:50:38;;;;;;;;;;;;;;;8.38;86.24;100690.50;5016099;28;20368;-74
2021/05/23 01:53:04;;;;;;;;;;;;;;;8.34;85.57;100686.50;5008798;28;19989;-75
2021/05/23 01:55:31;;;;;;;;;;;;;;;8.35;85.05;100689.94;5024668;28;19929;-75
2021/05/23 01:57:57;;;;;;;;;;;;;;;8.33;85.23;100691.88;5013173;28;19928;-76
2021/05/23 02:00:24;;;;;;;;;;;;;;;8.39;83.30;100684.31;5003005;28;19925;-77
2021/05/23 02:02:50;;;;;;;;;;;;;;;8.34;85.71;100693.50;5019727;28;20009;-76
2021/05/23 02:05:15;;;;;;;;;;;;;;;8.33;85.23;100699.72;5002139;28;20008;-75
2021/05/23 02:07:41;;;;;;;;;;;;;;;8.32;85.95;100700.66;5009235;28;19921;-77
2021/05/23 02:10:08;;;;;;;;;;;;;;;8.38;82.89;100693.13;5010339;28;19929;-77
2021/05/23 02:12:33;;;;;;;;;;;;;;;8.34;83.69;100696.13;5033549;28;19921;-77
2021/05/23 02:15:04;;;;;;;;;;;;;;;8.36;83.33;100692.44;5027185;28;19922;-76
2021/05/23 02:17:38;;;;;;;;;;;;;;;8.35;84.85;100689.94;5031170;28;20012;-75
2021/05/23 02:20:07;;;;;;;;;;;;;;;8.35;84.98;100696.00;5022127;28;20354;-76
2021/05/23 02:22:43;;;;;;;;;;;;;;;8.28;85.52;100694.03;5021633;28;19921;-76
2021/05/23 02:25:09;;;;;;;;;;;;;;;8.37;82.72;100695.88;5023850;28;19917;-76
2021/05/23 02:27:36;;;;;;;;;;;;;;;8.41;83.82;100699.84;5006812;28;19949;-76
2021/05/23 02:30:04;;;;;;;;;;;;;;;8.34;84.25;100702.19;4997328;28;19928;-77
2021/05/23 02:32:30;;;;;;;;;;;;;;;8.33;83.72;100702.31;5007158;28;20299;-77
2021/05/23 02:34:55;;;;;;;;;;;;;;;8.23;86.19;100697.06;5008469;28;19925;-76
2021/05/23 02:37:20;;;;;;;;;;;;;;;8.21;87.08;100708.59;5007855;28;20334;-76
2021/05/23 02:39:46;;;;;;;;;;;;;;;8.17;87.25;100706.25;5007906;28;19926;-76
2021/05/23 02:42:11;;;;;;;;;;;;;;;8.18;85.60;100715.75;5007060;28;19922;-77
2021/05/23 02:44:36;;;;;;;;;;;;;;;8.13;86.55;100715.28;5007963;28;19926;-76
2021/05/23 02:47:02;;;;;;;;;;;;;;;8.08;87.61;100721.88;5018969;28;19925;-76
2021/05/23 02:49:28;;;;;;;;;;;;;;;8.13;86.37;100714.47;5014398;28;20430;-76
2021/05/23 02:51:53;;;;;;;;;;;;;;;8.14;86.24;100716.16;5002066;28;19960;-76
2021/05/23 02:54:18;;;;;;;;;;;;;;;8.22;85.94;100718.09;5002161;28;19930;-76
2021/05/23 02:56:44;;;;;;;;;;;;;;;8.14;85.88;100718.75;5002503;28;19925;-77
2021/05/23 02:59:09;;;;;;;;;;;;;;;8.25;85.00;100723.88;5007098;28;20304;-76
2021/05/23 03:01:35;;;;;;;;;;;;;;;8.12;85.27;100723.28;5008647;28;19925;-75
2021/05/23 03:04:11;;;;;;;;;;;;;;;7.97;86.64;100728.84;5007083;28;19922;-76
2021/05/23 03:06:37;;;;;;;;;;;;;;;7.86;87.23;100723.72;5013796;28;19925;-76
2021/05/23 03:09:02;;;;;;;;;;;;;;;7.76;87.69;100734.09;5012443;28;19987;-75
2021/05/23 03:11:28;;;;;;;;;;;;;;;7.76;88.10;100741.94;5006974;28;20382;-76
2021/05/23 03:13:53;;;;;;;;;;;;;;;7.63;87.83;100737.84;5002682;28;19936;-75
2021/05/23 03:16:19;;;;;;;;;;;;;;;7.55;88.57;100748.91;5010582;28;20876;-75
2021/05/23 03:18:44;;;;;;;;;;;;;;;7.53;89.30;100748.22;4998476;28;19936;-75
2021/05/23 03:21:10;;;;;;;;;;;;;;;7.46;89.61;100754.91;5032019;28;20003;-75
2021/05/23 03:23:35;;;;;;;;;;;;;;;7.36;89.98;100762.66;5009597;28;19925;-75
2021/05/23 03:26:00;;;;;;;;;;;;;;;7.29;89.82;100761.50;5006696;28;19929;-75
2021/05/23 03:28:26;;;;;;;;;;;;;;;7.13;89.76;100756.69;5009079;28;19960;-75
2021/05/23 03:30:51;;;;;;;;;;;;;;;7.06;90.45;100760.75;5000944;28;19925;-75
2021/05/23 03:33:17;;;;;;;;;;;;;;;7.12;90.01;100762.84;5006320;28;19937;-75
2021/05/23 03:35:42;;;;;;;;;;;;;;;7.09;89.08;100774.38;5002535;28;19930;-76
2021/05/23 03:38:08;;;;;;;;;;;;;;;7.13;89.01;100777.56;4998736;28;20012;-75
2021/05/23 03:40:39;;;;;;;;;;;;;;;7.13;88.51;100783.59;4994776;28;19965;-76
2021/05/23 03:43:05;;;;;;;;;;;;;;;7.08;89.05;100790.13;5002695;28;20039;-76
2021/05/23 03:45:30;;;;;;;;;;;;;;;6.95;89.66;100785.91;5013200;28;19931;-75
2021/05/23 03:47:56;;;;;;;;;;;;;;;6.83;90.32;100794.69;5019114;28;20691;-76
2021/05/23 03:50:22;;;;;;;;;;;;;;;6.76;91.21;100790.91;5026269;28;19987;-76
2021/05/23 03:52:49;;;;;;;;;;;;;;;6.75;91.92;100791.88;5017363;28;19927;-77
2021/05/23 03:55:14;;;;;;;;;;;;;;;6.61;92.11;100791.19;5021062;28;20059;-77
2021/05/23 03:57:40;;;;;;;;;;;;;;;6.60;92.13;100799.94;5008149;28;20530;-75
2021/05/23 04:00:06;;;;;;;;;;;;;;;6.59;92.04;100800.03;5008083;28;20003;-75
2021/05/23 04:02:40;;;;;;;;;;;;;;;6.57;92.45;100804.56;5029091;28;19971;-75
2021/05/23 04:05:06;;;;;;;;;;;;;;;6.56;92.52;100801.13;5023026;28;19925;-75
2021/05/23 04:07:31;;;;;;;;;;;;;;;6.55;92.68;100803.84;5026094;28;19924;-76
2021/05/23 04:09:57;;;;;;;;;;;;;;;6.63;92.73;100810.13;5024456;28;20339;-76
2021/05/23 04:14:49;;;;;;;;;;;;;;;6.93;92.15;100821.72;5026174;28;19925;-76
2021/05/23 04:17:15;;;;;;;;;;;;;;;7.20;91.06;100818.69;5028154;28;19963;-75
2021/05/23 04:19:40;;;;;;;;;;;;;;;7.44;90.52;100819.44;5018396;28;20043;-75
2021/05/23 04:22:06;;;;;;;;;;;;;;;7.63;89.46;100817.00;5023074;28;19976;-76
2021/05/23 04:24:35;;;;;;;;;;;;;;;7.70;88.79;100823.34;5009333;28;19933;-75
2021/05/23 04:27:00;;;;;;;;;;;;;;;7.80;87.15;100820.84;5006285;28;20059;-76
2021/05/23 04:29:26;;;;;;;;;;;;;;;7.92;86.20;100826.84;5001606;28;20007;-75
2021/05/23 04:31:52;;;;;;;;;;;;;;;8.02;85.71;100830.31;4986814;28;19918;-76
2021/05/23 04:34:17;;;;;;;;;;;;;;;8.00;87.20;100832.22;4971737;28;19925;-75
2021/05/23 04:36:43;;;;;;;;;;;;;;;8.00;87.65;100832.22;5004207;28;19925;-75
2021/05/23 04:39:08;;;;;;;;;;;;;;;8.02;87.32;100839.94;4990227;28;19924;-76
2021/05/23 04:41:34;;;;;;;;;;;;;;;8.08;86.01;100850.72;4990857;28;19932;-76
2021/05/23 04:43:59;;;;;;;;;;;;;;;8.11;85.94;100849.63;4996912;28;20695;-76
2021/05/23 04:46:25;;;;;;;;;;;;;;;8.13;85.94;100856.38;4993005;28;20004;-76
2021/05/23 04:48:50;;;;;;;;;;;;;;;8.19;84.69;100850.66;4993688;28;20011;-76
2021/05/23 04:51:16;;;;;;;;;;;;;;;8.20;84.53;100851.47;4985299;28;19918;-76
2021/05/23 04:53:41;;;;;;;;;;;;;;;8.24;83.40;100852.06;4981618;28;19922;-77
2021/05/23 04:56:07;;;;;;;;;;;;;;;8.21;84.02;100858.34;4970480;28;20271;-76
2021/05/23 04:58:32;;;;;;;;;;;;;;;8.15;84.33;100859.69;4992555;28;19917;-76
2021/05/23 05:00:58;;;;;;;;;;;;;;;8.13;84.22;100869.44;4994197;28;20581;-76
2021/05/23 05:03:23;;;;;;;;;;;;;;;7.94;85.05;100877.16;4976601;28;20437;-76
2021/05/23 05:05:49;;;;;;;;;;;;;;;7.80;86.15;100876.50;4994668;28;19922;-76
2021/05/23 05:08:14;;;;;;;;;;;;;;;7.79;85.65;100881.84;5011928;28;19922;-76
2021/05/23 05:10:40;;;;;;;;;;;;;;;7.81;86.00;100887.78;4963029;28;19932;-76
2021/05/23 05:13:06;;;;;;;;;;;;;;;7.83;86.34;100891.09;4989694;28;20391;-77
2021/05/23 05:15:31;;;;;;;;;;;;;;;7.94;85.70;100887.59;4981369;28;19929;-75
2021/05/23 05:17:57;;;;;;;;;;;;;;;8.19;83.65;100896.84;4986410;28;19925;-76
2021/05/23 05:20:22;;;;;;;;;;;;;;;8.24;84.40;100899.91;4980994;28;19925;-75
2021/05/23 05:22:47;;;;;;;;;;;;;;;8.32;83.96;100897.47;5002201;28;20414;-77
2021/05/23 05:25:13;;;;;;;;;;;;;;;8.47;82.50;100897.19;4997474;28;19969;-76
2021/05/23 05:27:38;;;;;;;;;;;;;;;8.60;81.49;100897.81;5001323;28;19926;-76
2021/05/23 05:30:05;;;;;;;;;;;;;;;8.65;83.80;100905.28;4999943;28;20407;-76
2021/05/23 05:32:30;;;;;;;;;;;;;;;8.77;82.93;100905.06;5022698;28;19947;-77
2021/05/23 05:34:56;;;;;;;;;;;;;;;8.84;83.85;100909.78;5000951;28;20314;-76
2021/05/23 05:37:21;;;;;;;;;;;;;;;8.97;82.73;100899.91;5009631;28;19925;-74
2021/05/23 05:39:47;;;;;;;;;;;;;;;8.99;80.83;100905.84;5011275;28;20387;-75
2021/05/23 05:42:12;;;;;;;;;;;;;;;9.19;81.51;100909.34;5025871;28;19967;-75
2021/05/23 05:44:38;;;;;;;;;;;;;;;9.32;81.37;100906.47;5025421;28;19935;-76
2021/05/23 05:47:03;;;;;;;;;;;;;;;9.38;78.89;100907.75;5012292;28;19925;-75
2021/05/23 05:49:29;;;;;;;;;;;;;;;9.41;78.76;100917.94;5028621;28;19925;-75
2021/05/23 05:51:54;;;;;;;;;;;;;;;9.36;79.01;100920.97;5033350;28;19932;-75
2021/05/23 05:54:19;;;;;;;;;;;;;;;9.37;79.92;100913.94;5031499;28;19940;-74
2021/05/23 05:56:45;;;;;;;;;;;;;;;9.41;78.25;100924.00;5032778;28;20063;-76
2021/05/23 05:59:10;;;;;;;;;;;;;;;9.53;78.32;100922.94;5031619;28;19931;-75
2021/05/23 06:01:36;;;;;;;;;;;;;;;9.55;79.40;100914.97;5032027;28;19921;-77
2021/05/23 06:04:01;;;;;;;;;;;;;;;9.66;79.05;100920.06;5032905;28;20019;-76
2021/05/23 06:06:27;;;;;;;;;;;;;;;9.84;76.91;100925.44;5036859;28;19925;-76
2021/05/23 06:08:54;;;;;;;;;;;;;;;9.84;77.42;100920.22;5031643;28;19928;-75
2021/05/23 06:11:20;;;;;;;;;;;;;;;10.01;77.55;100923.13;5019620;28;20362;-75
2021/05/23 06:13:45;;;;;;;;;;;;;;;10.19;75.16;100928.47;5028251;28;19929;-75
2021/05/23 06:16:10;;;;;;;;;;;;;;;10.27;76.46;100931.25;5026935;28;19975;-75
2021/05/23 06:18:36;;;;;;;;;;;;;;;10.36;74.24;100935.69;5027925;28;19924;-76
2021/05/23 06:21:02;;;;;;;;;;;;;;;10.41;74.29;100938.69;5014143;28;19979;-76
2021/05/23 06:23:27;;;;;;;;;;;;;;;10.50;73.72;100948.34;5038082;28;19929;-75
2021/05/23 06:25:54;;;;;;;;;;;;;;;10.55;72.70;100940.06;5035774;28;19925;-77
2021/05/23 06:28:20;;;;;;;;;;;;;;;10.62;70.98;100935.06;5038926;28;19925;-76
2021/05/23 06:30:46;;;;;;;;;;;;;;;10.68;72.10;100940.56;5018037;28;20354;-75
2021/05/23 06:33:11;;;;;;;;;;;;;;;10.68;72.34;100937.09;5020855;28;20295;-75
2021/05/23 06:35:36;;;;;;;;;;;;;;;10.80;71.56;100938.59;5003495;28;20040;-76
2021/05/23 06:38:02;;;;;;;;;;;;;;;10.89;70.07;100940.38;4991007;28;20032;-75
2021/05/23 06:40:27;;;;;;;;;;;;;;;11.03;70.56;100941.69;5015258;28;21348;-76
2021/05/23 06:42:53;;;;;;;;;;;;;;;11.16;70.26;100946.59;5028300;28;20458;-76
2021/05/23 06:45:18;;;;;;;;;;;;;;;11.25;70.54;100953.63;5027200;28;20307;-76
2021/05/23 06:47:44;;;;;;;;;;;;;;;11.30;71.39;100961.03;5023065;28;20319;-76
2021/05/23 06:50:09;;;;;;;;;;;;;;;11.46;69.50;100963.06;4992171;28;20399;-76
2021/05/23 06:52:35;;;;;;;;;;;;;;;11.67;69.54;100971.47;5019134;28;19925;-76
2021/05/23 06:55:00;;;;;;;;;;;;;;;11.56;68.55;100978.75;5027617;28;20012;-75
2021/05/23 06:57:26;;;;;;;;;;;;;;;11.65;68.30;100981.31;5026884;28;20395;-76
2021/05/23 06:59:51;;;;;;;;;;;;;;;11.75;67.92;100981.25;5026624;28;19921;-76
2021/05/23 07:02:17;;;;;;;;;;;;;;;11.98;66.01;100984.34;5021798;28;19957;-76
2021/05/23 07:04:42;;;;;;;;;;;;;;;12.06;66.43;100984.41;5042588;28;19925;-78
2021/05/23 07:07:08;;;;;;;;;;;;;;;12.20;65.37;100990.09;5005819;28;20467;-75
2021/05/23 07:09:33;;;;;;;;;;;;;;;12.30;65.79;100995.28;5005129;28;20023;-75
2021/05/23 07:11:58;;;;;;;;;;;;;;;12.36;65.16;101000.78;5003018;28;19929;-75
2021/05/23 07:14:24;;;;;;;;;;;;;;;12.44;64.36;100994.75;5011333;28;19933;-74
2021/05/23 07:16:49;;;;;;;;;;;;;;;12.28;67.16;101000.69;5013289;28;19932;-75
2021/05/23 07:19:15;;;;;;;;;;;;;;;12.37;65.63;101002.41;5029620;28;19975;-76
2021/05/23 07:21:40;;;;;;;;;;;;;;;12.37;64.31;101009.47;5011341;28;19925;-77
2021/05/23 07:24:06;;;;;;;;;;;;;;;12.55;64.93;101005.03;5010335;28;19921;-76
2021/05/23 07:26:31;;;;;;;;;;;;;;;12.56;62.45;101005.84;5008062;28;19925;-75
2021/05/23 07:28:57;;;;;;;;;;;;;;;12.57;62.18;101008.31;5008194;28;20400;-76
2021/05/23 07:31:22;;;;;;;;;;;;;;;12.94;64.22;101015.16;4989331;28;19926;-76
2021/05/23 07:33:47;;;;;;;;;;;;;;;12.94;62.34;101022.22;5008177;28;19930;-76
2021/05/23 07:36:13;;;;;;;;;;;;;;;12.58;63.50;101024.94;5010596;28;19924;-77
2021/05/23 07:38:38;;;;;;;;;;;;;;;12.23;63.77;101026.63;5013652;28;19956;-75
2021/05/23 07:41:04;;;;;;;;;;;;;;;11.88;62.33;101022.94;5013780;28;19925;-75
2021/05/23 07:43:29;;;;;;;;;;;;;;;12.10;63.64;101024.38;5007568;28;19955;-75
2021/05/23 07:45:55;;;;;;;;;;;;;;;12.47;63.37;101026.03;5017214;28;19936;-74
2021/05/23 07:48:20;;;;;;;;;;;;;;;12.88;62.60;101033.38;5009524;28;19921;-75
2021/05/23 07:50:47;;;;;;;;;;;;;;;13.20;62.96;101033.59;5023762;28;19996;-76
2021/05/23 07:53:13;;;;;;;;;;;;;;;13.10;59.23;101037.31;5023854;28;19956;-76
2021/05/23 07:55:38;;;;;;;;;;;;;;;12.85;62.68;101030.06;5020084;28;20012;-77
2021/05/23 07:58:04;;;;;;;;;;;;;;;12.87;59.11;101047.53;5022460;28;19929;-75
2021/05/23 08:00:29;;;;;;;;;;;;;;;13.09;62.73;101043.53;5017957;28;19922;-76
2021/05/23 08:02:55;;;;;;;;;;;;;;;13.53;61.53;101044.31;5026909;28;19925;-75
2021/05/23 08:05:20;;;;;;;;;;;;;;;13.69;60.55;101051.44;5026053;28;19932;-75
2021/05/23 08:07:46;;;;;;;;;;;;;;;13.44;64.95;101058.44;5013688;28;19929;-75
2021/05/23 08:10:12;;;;;;;;;;;;;;;13.00;63.47;101056.66;5007247;28;19922;-75
2021/05/23 08:12:37;;;;;;;;;;;;;;;12.85;62.55;101058.22;5012555;28;19921;-76
2021/05/23 08:15:03;;;;;;;;;;;;;;;12.60;63.52;101058.03;4981707;28;20354;-75
2021/05/23 08:17:29;;;;;;;;;;;;;;;12.69;63.16;101064.16;5004090;28;19932;-75
2021/05/23 08:19:54;;;;;;;;;;;;;;;12.49;62.81;101073.19;5005760;28;19931;-75
2021/05/23 08:22:20;;;;;;;;;;;;;;;12.37;63.43;101077.88;4996210;28;19937;-76
2021/05/23 08:24:45;;;;;;;;;;;;;;;12.48;64.08;101079.47;5000754;28;19925;-76
2021/05/23 08:27:11;;;;;;;;;;;;;;;12.61;62.02;101075.47;5006260;28;19932;-77
2021/05/23 08:29:36;;;;;;;;;;;;;;;12.90;62.05;101081.44;5004733;28;19921;-75
2021/05/23 08:32:02;;;;;;;;;;;;;;;13.04;63.25;101083.53;5015278;28;19936;-75
2021/05/23 08:34:28;;;;;;;;;;;;;;;13.59;61.23;101088.47;5002998;28;20355;-77
2021/05/23 08:36:53;;;;;;;;;;;;;;;13.80;60.07;101090.69;5002873;28;19932;-75
2021/05/23 08:39:19;;;;;;;;;;;;;;;13.77;58.25;101085.75;5007023;28;19917;-77
2021/05/23 08:41:48;;;;;;;;;;;;;;;14.01;59.54;101094.72;5007308;28;19932;-76
2021/05/23 08:44:23;;;;;;;;;;;;;;;14.29;57.89;101094.47;5007004;28;20327;-77
2021/05/23 08:46:52;;;;;;;;;;;;;;;14.57;54.60;101095.03;5013656;28;19917;-76
2021/05/23 08:49:25;;;;;;;;;;;;;;;14.66;54.37;101090.59;5034627;28;20403;-75
2021/05/23 08:51:51;;;;;;;;;;;;;;;14.72;55.85;101100.47;5031317;28;20410;-76
2021/05/23 08:54:17;;;;;;;;;;;;;;;14.71;58.72;101099.66;5024579;28;19925;-77
2021/05/23 08:56:43;;;;;;;;;;;;;;;14.24;55.37;101112.59;5009422;28;19917;-76
2021/05/23 08:59:10;;;;;;;;;;;;;;;13.71;56.78;101110.13;5025929;28;20493;-76
2021/05/23 09:01:38;;;;;;;;;;;;;;;13.39;59.06;101108.13;5025920;28;19921;-76
2021/05/23 09:04:04;;;;;;;;;;;;;;;13.19;60.82;101121.47;5025280;28;20047;-76
2021/05/23 09:06:30;;;;;;;;;;;;;;;13.08;60.08;101113.00;5003620;28;20444;-77
2021/05/23 09:08:57;;;;;;;;;;;;;;;13.10;61.33;101119.78;5014742;28;19928;-76
2021/05/23 09:11:23;;;;;;;;;;;;;;;12.96;62.32;101118.53;5006017;28;19921;-76
2021/05/23 09:13:49;;;;;;;;;;;;;;;12.71;62.42;101106.94;5017638;28;19926;-78
2021/05/23 09:16:15;;;;;;;;;;;;;;;12.66;63.08;101117.13;5021456;28;19925;-77
2021/05/23 09:18:46;;;;;;;;;;;;;;;12.70;65.19;101115.03;5016141;28;19957;-78
2021/05/23 09:21:12;;;;;;;;;;;;;;;12.70;62.26;101117.66;4987681;28;19944;-77
2021/05/23 09:23:49;;;;;;;;;;;;;;;12.56;64.02;101125.06;5008362;28;19925;-77
2021/05/23 09:26:15;;;;;;;;;;;;;;;12.47;64.45;101126.00;5004268;28;19939;-78
2021/05/23 09:28:41;;;;;;;;;;;;;;;12.43;64.80;101136.00;4988862;28;19933;-77
2021/05/23 09:31:10;;;;;;;;;;;;;;;12.48;63.79;101130.25;5004887;28;19926;-76
2021/05/23 09:33:40;;;;;;;;;;;;;;;12.52;64.32;101136.06;5006969;28;19948;-76
2021/05/23 09:36:05;;;;;;;;;;;;;;;12.43;66.54;101132.50;4988653;28;19930;-76
2021/05/23 09:38:31;;;;;;;;;;;;;;;12.60;65.33;101136.13;4989849;28;19925;-76
2021/05/23 09:40:56;;;;;;;;;;;;;;;12.69;64.38;101140.50;5006798;28;19925;-76
2021/05/23 09:43:22;;;;;;;;;;;;;;;12.81;65.33;101136.66;5010884;28;19925;-76
2021/05/23 09:45:49;;;;;;;;;;;;;;;12.85;63.82;101140.66;5016534;28;20395;-77
2021/05/23 09:48:20;;;;;;;;;;;;;;;12.93;63.71;101144.34;5009010;28;20006;-77
2021/05/23 09:50:46;;;;;;;;;;;;;;;13.17;62.44;101141.88;5003569;28;19928;-76
2021/05/23 09:53:18;;;;;;;;;;;;;;;13.24;63.23;101140.28;5024204;28;19979;-78
2021/05/23 09:55:53;;;;;;;;;;;;;;;13.19;63.20;101150.44;5028060;28;20608;-77
2021/05/23 09:58:20;;;;;;;;;;;;;;;13.11;63.24;101145.13;5013598;28;20036;-77
2021/05/23 10:00:45;;;;;;;;;;;;;;;13.23;63.19;101151.78;5029418;28;19921;-77
2021/05/23 10:03:20;;;;;;;;;;;;;;;13.37;61.28;101157.50;5012637;28;19931;-77
2021/05/23 10:05:45;;;;;;;;;;;;;;;13.47;61.28;101160.88;5037244;28;19922;-76
2021/05/23 10:08:14;;;;;;;;;;;;;;;13.52;62.80;101163.88;5027758;28;19932;-77
2021/05/23 10:10:40;;;;;;;;;;;;;;;13.90;59.88;101160.94;5023625;28;20023;-77
2021/05/23 10:13:05;;;;;;;;;;;;;;;14.13;57.53;101153.31;5026057;28;20003;-78
2021/05/23 10:15:31;;;;;;;;;;;;;;;14.14;58.51;101157.56;5028833;28;20916;-78
2021/05/23 10:17:56;;;;;;;;;;;;;;;14.08;59.39;101168.78;5028799;28;19917;-78
2021/05/23 10:20:25;;;;;;;;;;;;;;;13.94;58.27;101170.22;5020607;28;19967;-78
2021/05/23 10:22:50;;;;;;;;;;;;;;;13.69;62.71;101174.50;5011226;28;19929;-78
2021/05/23 10:25:16;;;;;;;;;;;;;;;13.62;60.77;101172.50;5007874;28;20000;-77
2021/05/23 10:27:43;;;;;;;;;;;;;;;13.40;62.29;101175.66;5026335;28;20434;-77
2021/05/23 10:30:09;;;;;;;;;;;;;;;13.36;60.96;101174.31;5028687;28;20004;-77
2021/05/23 10:32:36;;;;;;;;;;;;;;;13.95;63.72;101180.56;5043603;28;19971;-78
2021/05/23 10:35:13;;;;;;;;;;;;;;;14.75;59.11;101182.84;5018842;28;19929;-76
2021/05/23 10:37:38;;;;;;;;;;;;;;;14.83;54.83;101179.38;5025629;28;21693;-77
2021/05/23 10:40:14;;;;;;;;;;;;;;;14.82;59.43;101167.16;5027066;28;19924;-80
2021/05/23 10:42:47;;;;;;;;;;;;;;;14.77;55.94;101175.56;5015894;28;20341;-76
2021/05/23 10:45:19;;;;;;;;;;;;;;;14.69;57.13;101182.66;5019324;28;19921;-77
2021/05/23 10:47:45;;;;;;;;;;;;;;;15.04;55.96;101196.56;5031999;28;19956;-76
2021/05/23 10:50:11;;;;;;;;;;;;;;;15.67;51.27;101189.72;5020659;28;20059;-77
2021/05/23 10:52:39;;;;;;;;;;;;;;;15.71;54.23;101186.56;5024684;28;19917;-77
2021/05/23 10:55:04;;;;;;;;;;;;;;;15.95;51.38;101184.84;5027165;28;20010;-77
2021/05/23 10:57:42;;;;;;;;;;;;;;;15.99;49.21;101188.81;5026647;28;19980;-76
2021/05/23 11:00:09;;;;;;;;;;;;;;;15.96;52.17;101190.00;5019060;28;20014;-77
2021/05/23 11:02:35;;;;;;;;;;;;;;;16.34;52.65;101197.28;5023816;28;19929;-76
2021/05/23 11:05:05;;;;;;;;;;;;;;;16.78;49.75;101187.91;5019009;28;20483;-77
2021/05/23 11:07:30;;;;;;;;;;;;;;;17.08;47.93;101196.81;5026493;28;19978;-78
2021/05/23 11:09:56;;;;;;;;;;;;;;;16.51;48.87;101198.00;5023439;28;19929;-78
2021/05/23 11:12:21;;;;;;;;;;;;;;;15.82;50.73;101198.63;5011059;28;20515;-78
2021/05/23 11:14:56;;;;;;;;;;;;;;;15.34;53.30;101198.53;4991963;28;20320;-76
2021/05/23 11:17:22;;;;;;;;;;;;;;;15.02;55.14;101199.34;5004542;28;20068;-76
2021/05/23 11:19:48;;;;;;;;;;;;;;;14.73;57.52;101208.59;5010272;28;20020;-77
2021/05/23 11:22:14;;;;;;;;;;;;;;;14.53;56.77;101210.63;5011547;28;19930;-75
2021/05/23 11:24:41;;;;;;;;;;;;;;;14.35;57.80;101218.69;5010999;28;20304;-77
2021/05/23 11:27:14;;;;;;;;;;;;;;;14.28;60.01;101216.81;5009536;28;19925;-78
2021/05/23 11:29:46;;;;;;;;;;;;;;;14.26;57.19;101216.16;5010779;28;19979;-75
2021/05/23 11:32:12;;;;;;;;;;;;;;;14.28;61.55;101219.44;5021436;28;19921;-77
2021/05/23 11:34:38;;;;;;;;;;;;;;;14.14;57.20;101220.88;5024582;28;19929;-77
2021/05/23 11:37:03;;;;;;;;;;;;;;;14.29;55.05;101218.47;5016823;28;20377;-76
2021/05/23 11:39:30;;;;;;;;;;;;;;;15.25;54.45;101219.84;5025953;28;19964;-77
2021/05/23 11:41:57;;;;;;;;;;;;;;;15.71;51.27;101223.59;5021564;28;19922;-77
2021/05/23 11:44:32;;;;;;;;;;;;;;;15.51;50.67;101220.47;5018819;28;19987;-77
2021/05/23 11:46:59;;;;;;;;;;;;;;;15.10;49.45;101223.13;5010316;28;19940;-76
2021/05/23 11:49:27;;;;;;;;;;;;;;;15.06;53.44;101216.53;5025655;28;20403;-76
2021/05/23 11:51:59;;;;;;;;;;;;;;;15.00;54.00;101225.13;5028529;28;19952;-75
2021/05/23 11:54:25;;;;;;;;;;;;;;;15.02;54.36;101223.13;5034804;28;20441;-75
2021/05/23 11:56:50;;;;;;;;;;;;;;;15.36;53.77;101219.50;5024636;28;19938;-75
2021/05/23 11:59:16;;;;;;;;;;;;;;;15.45;54.65;101209.75;5024671;28;20319;-76
2021/05/23 12:01:55;;;;;;;;;;;;;;;15.34;52.33;101214.38;5037428;28;19921;-76
2021/05/23 12:04:21;;;;;;;;;;;;;;;15.30;55.45;101209.59;5019545;28;19928;-76
2021/05/23 12:06:51;;;;;;;;;;;;;;;15.36;53.56;101211.56;5013472;28;19925;-76
2021/05/23 12:09:31;;;;;;;;;;;;;;;15.71;51.66;101206.91;5007469;28;19976;-76
2021/05/23 12:11:57;;;;;;;;;;;;;;;16.20;51.65;101219.16;5001653;28;19925;-76
2021/05/23 12:14:28;;;;;;;;;;;;;;;16.72;50.57;101213.28;5017519;28;20034;-77
2021/05/23 12:16:59;;;;;;;;;;;;;;;17.10;48.56;101213.34;5026176;28;19972;-76
2021/05/23 12:19:45;;;;;;;;;;;;;;;17.07;48.29;101216.38;5022300;28;20217;-77
2021/05/23 12:22:11;;;;;;;;;;;;;;;17.12;48.00;101221.94;5017238;28;19929;-75
2021/05/23 12:24:37;;;;;;;;;;;;;;;17.30;46.53;101216.34;5026402;28;19932;-76
2021/05/23 12:27:02;;;;;;;;;;;;;;;17.09;47.32;101217.03;5025220;28;19921;-76
2021/05/23 12:29:28;;;;;;;;;;;;;;;16.87;48.41;101206.25;5025116;28;19925;-75
2021/05/23 12:31:53;;;;;;;;;;;;;;;17.22;49.34;101214.59;4993769;28;19921;-76
2021/05/23 12:34:18;;;;;;;;;;;;;;;17.62;49.06;101214.41;4975054;28;19980;-76
2021/05/23 12:36:44;;;;;;;;;;;;;;;17.30;46.74;101216.34;5007460;28;19988;-76
2021/05/23 12:39:10;;;;;;;;;;;;;;;16.76;50.70;101224.34;4998062;28;20828;-76
2021/05/23 12:41:46;;;;;;;;;;;;;;;16.49;51.70;101221.19;5042001;28;20354;-75